| time (UTC) | temp F | wind direction | speed MPH | gust MPH | rain 1hr in | rain 24hr in | rain mn in | humidity % | barometer mb |
| 20260507171555 | 0 | 0.0 | 0.0 | 0.00 | 0.35 | 0.00 | 1016.7 | ||
| 20260507164532 | 0 | 0.0 | 0.0 | 0.00 | 0.35 | 0.00 | 1016.8 | ||
| 20260507163047 | 0 | 0.0 | 0.0 | 0.00 | 0.35 | 0.00 | 1017.0 | ||
| 20260507160032 | 0 | 0.0 | 0.0 | 0.00 | 0.35 | 0.00 | 1016.9 | ||
| 20260507154559 | 0 | 0.0 | 0.0 | 0.00 | 0.35 | 0.00 | 1016.9 | ||
| 20260507153054 | 0 | 0.0 | 0.0 | 0.00 | 0.35 | 0.00 | 1017.1 | ||
| 20260507151552 | 0 | 0.0 | 0.0 | 0.00 | 0.35 | 0.00 | 1017.2 | ||
| 20260507144544 | 0 | 0.0 | 0.0 | 0.00 | 0.35 | 0.00 | 1017.4 | ||
| 20260507141538 | 0 | 0.0 | 0.0 | 0.00 | 0.35 | 0.00 | 1017.5 | ||
| 20260507140043 | 0 | 0.0 | 0.0 | 0.00 | 0.35 | 0.00 | 1017.7 | ||
| 20260507134636 | 0 | 0.0 | 0.0 | 0.00 | 0.35 | 0.00 | 1017.4 | ||
| 20260507133008 | 0 | 0.0 | 0.0 | 0.00 | 0.35 | 0.00 | 1017.9 | ||
| 20260507130104 | 0 | 0.0 | 0.0 | 0.00 | 0.35 | 0.00 | 1017.8 | ||
| 20260507124512 | 63 | 93 | 5.0 | 18.0 | 0.00 | 0.35 | 0.00 | 75 | 1018.0 |
| 20260507123100 | 61 | 148 | 8.0 | 14.0 | 0.00 | 0.35 | 0.00 | 78 | 1018.1 |
| 20260507121524 | 61 | 116 | 4.0 | 11.0 | 0.00 | 0.35 | 0.00 | 84 | 1018.0 |
| 20260507120058 | 60 | 106 | 4.0 | 13.0 | 0.00 | 0.35 | 0.00 | 86 | 1018.2 |
| 20260507120007 | 60 | 108 | 4.0 | 13.0 | 0.00 | 0.35 | 0.00 | 86 | 1018.3 |
| 20260507114538 | 60 | 75 | 3.0 | 15.0 | 0.00 | 0.35 | 0.00 | 86 | 1018.6 |
| 20260507113020 | 60 | 113 | 4.0 | 15.0 | 0.00 | 0.35 | 0.00 | 87 | 1018.5 |
| 20260507111554 | 59 | 175 | 5.0 | 15.0 | 0.00 | 0.35 | 0.00 | 89 | 1018.6 |
| 20260507110034 | 59 | 161 | 4.0 | 13.0 | 0.00 | 0.35 | 0.00 | 90 | 1018.7 |
| 20260507104510 | 59 | 160 | 3.0 | 11.0 | 0.00 | 0.35 | 0.00 | 90 | 1018.9 |
| 20260507103048 | 59 | 84 | 4.0 | 11.0 | 0.00 | 0.35 | 0.00 | 90 | 1018.9 |
| 20260507101524 | 59 | 172 | 5.0 | 18.0 | 0.00 | 0.35 | 0.00 | 91 | 1018.9 |
| 20260507100007 | 59 | 86 | 8.0 | 15.0 | 0.00 | 0.35 | 0.35 | 90 | 1018.9 |
| 20260507094547 | 59 | 116 | 8.0 | 21.0 | 0.00 | 0.35 | 0.35 | 90 | 1018.9 |
| 20260507093019 | 59 | 110 | 6.0 | 20.0 | 0.00 | 0.35 | 0.35 | 94 | 1018.8 |
| 20260507091556 | 58 | 124 | 6.0 | 14.0 | 0.00 | 0.35 | 0.35 | 95 | 1018.6 |
| 20260507090032 | 57 | 79 | 8.0 | 16.0 | 0.00 | 0.35 | 0.35 | 96 | 1018.7 |
| 20260507084515 | 57 | 96 | 8.0 | 16.0 | 0.00 | 0.35 | 0.35 | 96 | 1018.6 |
| 20260507083039 | 57 | 76 | 6.0 | 13.0 | 0.00 | 0.35 | 0.35 | 96 | 1018.5 |
| 20260507081520 | 57 | 84 | 4.0 | 13.0 | 0.00 | 0.35 | 0.35 | 96 | 1018.1 |
| 20260507080001 | 57 | 148 | 5.0 | 15.0 | 0.00 | 0.35 | 0.35 | 96 | 1017.7 |
| 20260507074533 | 57 | 101 | 6.0 | 17.0 | 0.00 | 0.35 | 0.35 | 96 | 1018.0 |
| 20260507073012 | 57 | 41 | 9.0 | 18.0 | 0.00 | 0.35 | 0.35 | 96 | 1017.1 |
| 20260507071546 | 56 | 359 | 4.0 | 13.0 | 0.00 | 0.35 | 0.35 | 96 | 1018.5 |
| 20260507070032 | 57 | 30 | 5.0 | 12.0 | 0.00 | 0.35 | 0.35 | 96 | 1019.2 |
| 20260507064637 | 57 | 77 | 5.0 | 12.0 | 0.00 | 0.35 | 0.35 | 96 | 1019.2 |
| 20260507064503 | 57 | 143 | 5.0 | 15.0 | 0.00 | 0.35 | 0.35 | 96 | 1019.2 |
| 20260507063041 | 57 | 115 | 4.0 | 12.0 | 0.00 | 0.35 | 0.35 | 96 | 1019.2 |
| 20260507061516 | 56 | 32 | 5.0 | 12.0 | 0.00 | 0.35 | 0.35 | 96 | 1019.1 |
| 20260507060111 | 56 | 68 | 3.0 | 8.0 | 0.00 | 0.35 | 0.35 | 96 | 1019.1 |
| 20260507054538 | 56 | 44 | 1.0 | 6.0 | 0.00 | 0.35 | 0.35 | 96 | 1019.5 |
| 20260507053011 | 56 | 95 | 1.0 | 6.0 | 0.00 | 0.35 | 0.35 | 96 | 1019.6 |
| 20260507051601 | 56 | 109 | 0.0 | 8.0 | 0.00 | 0.35 | 0.35 | 96 | 1019.4 |
| 20260507050036 | 55 | 126 | 1.0 | 6.0 | 0.00 | 0.35 | 0.35 | 96 | 1019.0 |
| 20260507044503 | 56 | 349 | 3.0 | 9.0 | 0.00 | 0.35 | 0.35 | 96 | 1018.5 |
| 20260507043041 | 56 | 28 | 2.0 | 7.0 | 0.01 | 0.35 | 0.35 | 96 | 1018.6 |
| 20260507041524 | 56 | 62 | 5.0 | 11.0 | 0.03 | 0.35 | 0.35 | 96 | 1017.9 |
| 20260507040052 | 56 | 25 | 5.0 | 10.0 | 0.09 | 0.35 | 0.35 | 96 | 1018.3 |
| 20260507040001 | 56 | 58 | 5.0 | 10.0 | 0.09 | 0.35 | 0.35 | 96 | 1018.3 |
| 20260507034531 | 57 | 57 | 2.0 | 9.0 | 0.12 | 0.35 | 0.35 | 96 | 1018.2 |
| 20260507033004 | 57 | 24 | 3.0 | 10.0 | 0.11 | 0.34 | 0.34 | 96 | 1018.1 |
| 20260507031538 | 57 | 33 | 3.0 | 6.0 | 0.09 | 0.32 | 0.33 | 96 | 1018.6 |
| 20260507030026 | 57 | 57 | 2.0 | 8.0 | 0.03 | 0.26 | 0.26 | 96 | 1018.8 |
| 20260507024544 | 57 | 109 | 1.0 | 10.0 | 0.00 | 0.23 | 0.23 | 96 | 1018.4 |
| 20260507023025 | 57 | 66 | 3.0 | 9.0 | 0.00 | 0.23 | 0.23 | 96 | 1018.3 |
| 20260507021600 | 57 | 124 | 0.0 | 3.0 | 0.03 | 0.23 | 0.23 | 96 | 1017.9 |
| 20260507021502 | 57 | 115 | 1.0 | 3.0 | 0.03 | 0.23 | 0.23 | 96 | 1017.8 |
| 20260507020046 | 57 | 8 | 1.0 | 5.0 | 0.05 | 0.23 | 0.23 | 96 | 1016.9 |
| 20260507014522 | 57 | 25 | 3.0 | 9.0 | 0.05 | 0.23 | 0.23 | 95 | 1016.8 |
| 20260507013053 | 57 | 332 | 5.0 | 13.0 | 0.05 | 0.23 | 0.23 | 95 | 1016.0 |
| 20260507011538 | 57 | 172 | 0.0 | 5.0 | 0.02 | 0.20 | 0.20 | 95 | 1018.5 |
| 20260507010114 | 57 | 101 | 2.0 | 6.0 | 0.00 | 0.18 | 0.18 | 95 | 1018.7 |
| 20260507010004 | 57 | 91 | 2.0 | 6.0 | 0.00 | 0.18 | 0.18 | 95 | 1018.7 |
| 20260507004540 | 57 | 20 | 2.0 | 10.0 | 0.00 | 0.18 | 0.18 | 95 | 1017.4 |
| 20260507003015 | 57 | 83 | 5.0 | 10.0 | 0.01 | 0.18 | 0.18 | 95 | 1017.3 |
| 20260507001557 | 57 | 65 | 2.0 | 7.0 | 0.01 | 0.18 | 0.18 | 95 | 1017.9 |
| 20260507000030 | 57 | 191 | 1.0 | 7.0 | 0.04 | 0.18 | 0.18 | 95 | 1017.8 |
| 20260506234510 | 57 | 151 | 1.0 | 7.0 | 0.05 | 0.18 | 0.18 | 95 | 1017.4 |
| 20260506233050 | 57 | 150 | 0.0 | 8.0 | 0.07 | 0.17 | 0.17 | 95 | 1017.4 |
| 20260506231523 | 57 | 356 | 4.0 | 9.0 | 0.14 | 0.17 | 0.17 | 95 | 1016.9 |
| 20260506230010 | 57 | 26 | 3.0 | 5.0 | 0.13 | 0.14 | 0.14 | 95 | 1017.4 |
| 20260506224540 | 58 | 101 | 0.0 | 3.0 | 0.13 | 0.13 | 0.13 | 95 | 1018.1 |
| 20260506223017 | 58 | 148 | 0.0 | 1.0 | 0.09 | 0.09 | 0.10 | 95 | 1018.1 |
| 20260506221610 | 58 | 43 | 0.0 | 7.0 | 0.03 | 0.03 | 0.04 | 95 | 1017.9 |
| 20260506220037 | 57 | 131 | 3.0 | 7.0 | 0.01 | 0.01 | 0.01 | 95 | 1018.0 |
| 20260506214505 | 57 | 65 | 2.0 | 8.0 | 0.00 | 0.00 | 0.00 | 94 | 1017.9 |
| 20260506213048 | 57 | 119 | 4.0 | 10.0 | 0.00 | 0.00 | 0.00 | 94 | 1018.1 |
| 20260506211522 | 57 | 94 | 5.0 | 13.0 | 0.00 | 0.00 | 0.00 | 94 | 1017.9 |
| 20260506210105 | 57 | 94 | 5.0 | 12.0 | 0.00 | 0.00 | 0.00 | 94 | 1017.8 |
| 20260506204536 | 57 | 172 | 5.0 | 13.0 | 0.00 | 0.00 | 0.00 | 94 | 1017.7 |
| 20260506203014 | 57 | 128 | 3.0 | 11.0 | 0.00 | 0.00 | 0.00 | 94 | 1017.7 |
| 20260506201550 | 57 | 124 | 5.0 | 13.0 | 0.00 | 0.00 | 0.00 | 93 | 1017.6 |
| 20260506200026 | 57 | 176 | 4.0 | 10.0 | 0.00 | 0.00 | 0.00 | 93 | 1017.3 |
| 20260506194556 | 57 | 62 | 3.0 | 12.0 | 0.00 | 0.00 | 0.00 | 93 | 1017.3 |
| 20260506193034 | 57 | 89 | 5.0 | 12.0 | 0.00 | 0.00 | 0.00 | 93 | 1017.1 |
| 20260506191551 | 57 | 156 | 6.0 | 15.0 | 0.00 | 0.00 | 0.00 | 93 | 1017.2 |
| 20260506190029 | 57 | 101 | 5.0 | 11.0 | 0.00 | 0.00 | 0.00 | 92 | 1017.0 |
| 20260506184620 | 57 | 61 | 7.0 | 10.0 | 0.00 | 0.00 | 0.00 | 92 | 1017.0 |
| 20260506183018 | 0 | 0.0 | 0.0 | 0.00 | 0.00 | 0.00 | 1017.1 | ||
| 20260506181512 | 0 | 0.0 | 0.0 | 0.00 | 0.00 | 0.00 | 1017.0 | ||
| 20260506174539 | 0 | 0.0 | 0.0 | 0.00 | 0.00 | 0.00 | 1016.9 | ||
| 20260506173159 | 0 | 0.0 | 0.0 | 0.00 | 0.00 | 0.00 | 1016.9 |